Time;durP1;ratioP1;P1;durP2;ratioP2;P2;SDS_P1;SDS_P2;PMS_P1;PMS_P2;Temp;Humidity;BMP_temperature;BMP_pressure;BME280_temperature;BME280_humidity;BME280_pressure;Samples;Min_cycle;Max_cycle;Signal;HPM_P1;HPM_P2
2021/08/01 00:02:17;;;;;;;0.40;0.40;;;;;;;14.33;90.56;91928.25;4840362;29;20054;-93
2021/08/01 00:05:09;;;;;;;2.08;1.50;;;;;;;14.33;91.69;91911.69;4860839;29;20064;-93
2021/08/01 00:08:08;;;;;;;0.93;0.60;;;;;;;14.58;90.26;91933.66;4829469;29;20484;-95
2021/08/01 00:10:40;;;;;;;0.52;0.52;;;;;;;14.56;91.03;91943.72;4834675;29;20053;-93
2021/08/01 00:13:17;;;;;;;1.15;0.73;;;;;;;14.20;91.27;91896.94;4815965;29;20053;-94
2021/08/01 00:16:04;;;;;;;2.47;0.80;;;;;;;14.37;91.40;91915.97;4840549;29;20532;-93
2021/08/01 00:18:40;;;;;;;0.30;0.30;;;;;;;14.27;89.47;91908.47;4840599;29;20054;-93
2021/08/01 00:21:11;;;;;;;0.30;0.30;;;;;;;14.18;87.77;91891.97;4840688;29;20050;-94
2021/08/01 00:24:10;;;;;;;0.32;0.32;;;;;;;14.46;88.34;91930.94;4832515;29;20395;-93
2021/08/01 00:26:54;;;;;;;0.60;0.60;;;;;;;14.28;88.97;91888.19;4831321;29;20061;-92
2021/08/01 00:29:27;;;;;;;0.43;0.43;;;;;;;14.48;87.34;91915.59;4827830;29;20053;-93
2021/08/01 00:32:23;;;;;;;0.40;0.40;;;;;;;14.42;88.31;91898.44;4837947;29;20608;-92
2021/08/01 00:35:12;;;;;;;;;;;;;;;;;;;;;
2021/08/01 00:38:15;;;;;;;0.30;0.30;;;;;;;14.58;90.62;91894.91;4878182;29;20048;-94
2021/08/01 00:40:56;;;;;;;0.50;0.50;;;;;;;14.53;90.40;91883.78;4846761;29;20057;-94
2021/08/01 00:43:32;;;;;;;0.43;0.43;;;;;;;14.33;90.45;91844.00;4842278;29;20515;-94
2021/08/01 00:45:58;;;;;;;0.40;0.40;;;;;;;14.29;90.21;91840.47;4813525;29;20049;-94
2021/08/01 00:48:29;;;;;;;0.73;0.50;;;;;;;14.41;90.55;91870.56;4839727;29;20049;-94
2021/08/01 00:51:59;;;;;;;0.30;0.30;;;;;;;14.44;91.03;91888.38;4815486;29;20053;-93
2021/08/01 00:54:50;;;;;;;0.50;0.50;;;;;;;14.16;91.31;91849.41;4842288;29;20053;-93
2021/08/01 00:57:40;;;;;;;0.50;0.50;;;;;;;14.18;91.39;91857.75;4845538;29;20114;-95
2021/08/01 01:00:57;;;;;;;0.40;0.40;;;;;;;14.22;91.09;91869.19;4829263;29;20049;-94
2021/08/01 01:03:47;;;;;;;0.32;0.32;;;;;;;14.20;90.89;91858.22;4842202;29;20084;-94
2021/08/01 01:06:49;;;;;;;0.40;0.40;;;;;;;14.31;90.91;91872.50;4860960;29;20113;-92
2021/08/01 01:10:30;;;;;;;0.30;0.30;;;;;;;14.42;90.80;91882.66;4863486;29;20045;-93
2021/08/01 01:13:50;;;;;;;0.40;0.40;;;;;;;14.58;90.35;91908.06;4841439;29;20492;-94
2021/08/01 01:17:04;;;;;;;0.33;0.33;;;;;;;14.26;90.32;91864.06;4850411;29;20049;-94
2021/08/01 01:20:01;;;;;;;1.05;0.95;;;;;;;14.60;90.64;91920.94;4837098;29;20894;-93
2021/08/01 01:23:26;;;;;;;;;;;;;;;;;;;;;
2021/08/01 01:26:35;;;;;;;0.57;0.57;;;;;;;14.25;90.82;91868.56;4826411;29;20491;-94
2021/08/01 01:29:22;;;;;;;;;;;;;;;;;;;;;
2021/08/01 01:32:33;;;;;;;;;;;;;;;;;;;;;
2021/08/01 01:35:21;;;;;;;;;;;;;;;;;;;;;
2021/08/01 01:37:56;;;;;;;0.60;0.60;;;;;;;14.33;90.78;91844.00;4848701;29;20137;-94
2021/08/01 01:41:05;;;;;;;0.32;0.32;;;;;;;14.30;90.84;91834.13;4803217;29;20112;-93
2021/08/01 01:43:55;;;;;;;0.40;0.40;;;;;;;14.28;90.99;91825.78;4834331;29;20045;-94
2021/08/01 01:46:24;;;;;;;0.43;0.43;;;;;;;14.42;90.70;91840.53;4828037;29;20061;-94
2021/08/01 01:49:12;;;;;;;0.40;0.40;;;;;;;14.25;91.04;91808.00;4848955;29;20057;-94
2021/08/01 01:51:56;;;;;;;0.30;0.30;;;;;;;14.42;90.99;91846.56;4881903;29;20059;-94
2021/08/01 01:58:01;;;;;;;0.63;0.63;;;;;;;14.48;89.58;91850.53;4872408;29;20109;-90
2021/08/01 02:00:39;;;;;;;0.30;0.30;;;;;;;14.31;90.22;91811.97;4865271;29;20053;-94
2021/08/01 02:03:56;;;;;;;0.43;0.43;;;;;;;14.44;90.63;91825.94;4879754;29;20049;-93
2021/08/01 02:06:58;;;;;;;0.63;0.57;;;;;;;14.19;91.39;91790.13;4847229;29;20052;-94
2021/08/01 02:09:48;;;;;;;0.57;0.55;;;;;;;14.38;91.71;91833.25;4866404;29;20045;-91
2021/08/01 02:12:53;;;;;;;0.63;0.63;;;;;;;14.28;92.64;91825.78;4881273;29;20057;-95
2021/08/01 02:15:35;;;;;;;0.40;0.40;;;;;;;14.05;92.39;91790.38;4865903;29;20053;-95
2021/08/01 02:18:30;;;;;;;0.50;0.50;;;;;;;14.26;92.45;91820.06;4861066;29;20053;-94
2021/08/01 02:21:25;;;;;;;0.63;0.63;;;;;;;14.09;92.28;91792.03;4879059;29;20053;-94
2021/08/01 02:24:50;;;;;;;;;;;;;;;;;;;;;
2021/08/01 02:27:38;;;;;;;0.40;0.40;;;;;;;14.31;92.20;91808.56;4869869;29;20061;-93
2021/08/01 02:30:23;;;;;;;0.35;0.35;;;;;;;14.19;92.54;91780.34;4846088;29;20083;-94
2021/08/01 02:33:12;;;;;;;0.63;0.63;;;;;;;14.15;92.19;91774.19;4847358;29;20071;-93
2021/08/01 02:35:45;;;;;;;0.50;0.50;;;;;;;14.11;92.25;91760.13;4830552;29;20061;-93
2021/08/01 02:38:23;;;;;;;0.90;0.80;;;;;;;14.34;92.16;91803.44;4847304;29;20513;-95
2021/08/01 02:41:34;;;;;;;;;;;;;;;;;;;;;
2021/08/01 02:44:26;;;;;;;0.77;0.77;;;;;;;14.34;91.54;91803.44;4839953;29;20046;-94
2021/08/01 02:47:21;;;;;;;;;;;;;;;;;;;;;
2021/08/01 02:53:02;;;;;;;0.73;0.73;;;;;;;14.23;91.47;91773.34;4851670;29;20065;-93
2021/08/01 02:58:54;;;;;;;0.40;0.40;;;;;;;14.22;92.15;91753.38;4860892;29;20148;-93
2021/08/01 03:01:57;;;;;;;;;;;;;;;;;;;;;
2021/08/01 03:05:00;;;;;;;1.05;0.88;;;;;;;14.27;92.06;91760.28;4845270;29;20455;-94
2021/08/01 03:07:51;;;;;;;1.38;1.02;;;;;;;14.58;92.13;91808.00;4830726;29;20136;-93
2021/08/01 03:10:24;;;;;;;0.40;0.40;;;;;;;14.25;91.67;91752.75;4834009;29;20054;-94
2021/08/01 03:13:05;;;;;;;;;;;;;;;;;;;;;
2021/08/01 03:15:42;;;;;;;0.85;0.82;;;;;;;14.19;92.02;91732.97;4865472;29;20128;-94
2021/08/01 03:18:59;;;;;;;;;;;;;;;;;;;;;
2021/08/01 03:22:01;;;;;;;0.88;0.88;;;;;;;14.14;91.44;91738.44;4865950;29;20135;-95
2021/08/01 03:24:41;;;;;;;0.85;0.80;;;;;;;14.31;91.92;91754.03;4853181;29;20088;-93
2021/08/01 03:27:46;;;;;;;1.83;0.88;;;;;;;14.05;91.49;91711.44;4869353;29;20080;-93
2021/08/01 03:30:30;;;;;;;0.40;0.40;;;;;;;14.18;91.70;91734.06;4837293;29;20045;-94
2021/08/01 03:33:29;;;;;;;0.57;0.57;;;;;;;14.16;91.85;91734.41;4865477;29;20135;-94
2021/08/01 03:36:00;;;;;;;0.40;0.40;;;;;;;14.04;91.88;91709.91;4848722;29;20045;-93
2021/08/01 03:39:00;;;;;;;0.85;0.85;;;;;;;14.22;92.34;91747.34;4849625;29;20411;-94
2021/08/01 03:41:50;;;;;;;;;;;;;;;;;;;;;
2021/08/01 03:44:33;;;;;;;0.50;0.50;;;;;;;13.95;92.11;91702.88;4865242;29;20041;-92
2021/08/01 03:47:01;;;;;;;0.47;0.40;;;;;;;13.95;91.66;91710.00;4838193;29;20072;-92
2021/08/01 03:49:44;;;;;;;0.82;0.60;;;;;;;13.91;92.67;91704.59;4854183;29;20055;-94
2021/08/01 03:52:19;;;;;;;0.70;0.70;;;;;;;14.00;92.25;91724.81;4845875;29;20050;-94
2021/08/01 03:54:58;;;;;;;0.60;0.55;;;;;;;14.14;92.01;91730.56;4832350;29;20057;-94
2021/08/01 03:57:49;;;;;;;0.68;0.68;;;;;;;14.26;92.17;91741.09;4839568;29;20504;-93
2021/08/01 04:00:28;;;;;;;0.55;0.55;;;;;;;13.93;91.67;91694.53;4861036;29;20193;-93
2021/08/01 04:03:17;;;;;;;1.25;0.85;;;;;;;13.93;91.60;91676.09;4860465;29;20140;-93
2021/08/01 04:06:05;;;;;;;0.90;0.80;;;;;;;13.94;91.69;91680.28;4849344;29;20053;-94
2021/08/01 04:08:50;;;;;;;2.30;1.05;;;;;;;13.89;91.60;91662.09;4839718;29;20053;-93
2021/08/01 04:11:49;;;;;;;;;;;;;;;;;;;;;
2021/08/01 04:14:31;;;;;;;0.70;0.70;;;;;;;13.91;93.19;91659.13;4863125;29;20144;-94
2021/08/01 04:17:29;;;;;;;1.13;1.02;;;;;;;14.30;93.01;91733.31;4842408;29;20048;-93
2021/08/01 04:20:22;;;;;;;;;;;;;;;;;;;;;
2021/08/01 04:26:10;;;;;;;1.80;1.15;;;;;;;14.04;91.22;91718.56;4870785;29;20060;-93
2021/08/01 04:28:55;;;;;;;1.35;1.20;;;;;;;14.28;91.09;91746.03;4864241;29;20503;-94
2021/08/01 04:31:28;;;;;;;1.08;0.98;;;;;;;14.08;91.72;91716.81;4833679;29;20085;-93
2021/08/01 04:34:01;;;;;;;1.40;0.95;;;;;;;14.11;91.97;91721.44;4833028;29;20049;-94
2021/08/01 04:36:34;;;;;;;0.70;0.70;;;;;;;14.07;91.82;91703.97;4861919;29;20491;-96
2021/08/01 04:39:20;;;;;;;0.55;0.50;;;;;;;14.20;91.29;91723.97;4847566;29;20105;-93
2021/08/01 04:42:22;;;;;;;0.80;0.80;;;;;;;14.30;91.18;91728.06;4863996;29;20036;-95
2021/08/01 04:44:53;;;;;;;0.55;0.55;;;;;;;14.10;91.10;91684.94;4862064;29;20045;-93
2021/08/01 04:47:29;;;;;;;0.30;0.30;;;;;;;14.12;90.87;91682.75;4847443;29;20091;-95
2021/08/01 04:50:10;;;;;;;1.02;0.77;;;;;;;14.33;91.26;91703.72;4848055;29;20061;-94
2021/08/01 04:52:54;;;;;;;0.80;0.68;;;;;;;14.38;90.84;91698.97;4832636;29;20113;-94
2021/08/01 04:55:41;;;;;;;1.23;0.82;;;;;;;14.36;90.53;91680.13;4850219;29;20174;-92
2021/08/01 04:58:20;;;;;;;1.00;0.82;;;;;;;14.33;91.38;91686.03;4847479;29;20052;-94
2021/08/01 05:01:02;;;;;;;0.85;0.73;;;;;;;14.41;91.66;91702.06;4861400;29;20057;-93
2021/08/01 05:03:52;;;;;;;0.50;0.50;;;;;;;14.05;91.32;91669.34;4845958;29;20385;-92
2021/08/01 05:06:41;;;;;;;0.32;0.32;;;;;;;14.14;91.83;91681.31;4832820;29;20057;-95
2021/08/01 05:09:42;;;;;;;;;;;;;;;;;;;;;
2021/08/01 05:12:18;;;;;;;0.50;0.50;;;;;;;13.94;92.96;91675.03;4860937;29;20124;-92
2021/08/01 05:14:49;;;;;;;0.90;0.75;;;;;;;14.12;93.13;91694.03;4828104;29;20042;-93
2021/08/01 05:17:23;;;;;;;0.80;0.50;;;;;;;14.30;93.47;91715.66;4844397;24;20082;-79
2021/08/01 05:19:48;;;;;;;0.60;0.60;;;;;;;14.34;93.81;91706.03;4863563;29;20500;-80
2021/08/01 05:22:14;;;;;;;2.65;0.93;;;;;;;14.42;91.76;91690.44;4799729;29;20064;-78
2021/08/01 05:24:41;;;;;;;0.32;0.32;;;;;;;14.48;89.26;91697.81;4846328;29;20044;-79
2021/08/01 05:27:08;;;;;;;0.43;0.43;;;;;;;14.56;88.38;91706.72;4859303;29;20507;-78
2021/08/01 05:29:34;;;;;;;1.25;0.60;;;;;;;14.66;88.84;91700.22;4845438;29;20091;-78
2021/08/01 05:31:59;;;;;;;0.70;0.70;;;;;;;14.73;89.45;91708.38;4844259;29;20058;-79
2021/08/01 05:34:25;;;;;;;0.70;0.70;;;;;;;14.80;89.90;91713.09;4845929;29;20050;-79
2021/08/01 05:36:51;;;;;;;0.52;0.50;;;;;;;14.87;89.74;91708.03;4855721;29;20046;-78
2021/08/01 05:39:17;;;;;;;3.15;1.75;;;;;;;14.92;89.51;91699.88;4863075;29;20061;-79
2021/08/01 05:41:42;;;;;;;0.80;0.80;;;;;;;15.00;89.30;91696.38;4863517;29;20045;-79
2021/08/01 05:44:08;;;;;;;0.65;0.65;;;;;;;15.18;89.33;91702.91;4862506;29;20037;-78
2021/08/01 05:46:34;;;;;;;0.40;0.40;;;;;;;15.29;87.25;91711.16;4860297;29;20057;-78
2021/08/01 05:48:59;;;;;;;1.02;0.47;;;;;;;15.39;87.13;91718.56;4843727;29;20081;-79
2021/08/01 05:51:25;;;;;;;0.45;0.45;;;;;;;15.48;86.88;91715.81;4844358;29;20045;-78
2021/08/01 05:53:51;;;;;;;0.45;0.45;;;;;;;15.49;87.26;91721.84;4842838;29;20050;-78
2021/08/01 05:56:16;;;;;;;1.27;1.20;;;;;;;15.77;87.27;91730.56;4843476;29;20053;-78
2021/08/01 05:58:42;;;;;;;0.40;0.40;;;;;;;14.98;89.42;91717.78;4846655;29;20046;-78
2021/08/01 06:01:12;;;;;;;0.93;0.80;;;;;;;15.39;88.58;91712.53;4844114;29;20496;-78
2021/08/01 06:03:39;;;;;;;0.85;0.65;;;;;;;16.25;86.08;91717.47;4844269;29;20375;-78
2021/08/01 06:06:12;;;;;;;0.47;0.43;;;;;;;16.60;82.06;91725.50;4842704;29;20054;-80
2021/08/01 06:08:38;;;;;;;;;;;;;;;16.68;82.67;91730.94;4839390;29;20344;-80
2021/08/01 06:11:04;;;;;;;0.70;0.70;;;;;;;17.45;80.50;91735.69;4824351;29;20435;-79
2021/08/01 06:13:30;;;;;;;0.50;0.50;;;;;;;20.54;68.00;91730.56;4823405;29;20046;-80
2021/08/01 06:15:56;;;;;;;0.85;0.73;;;;;;;22.30;60.48;91737.78;4806960;29;20453;-80
2021/08/01 06:18:22;;;;;;;0.38;0.38;;;;;;;21.16;64.72;91733.38;4856229;29;20061;-80
2021/08/01 06:20:47;;;;;;;0.75;0.75;;;;;;;21.55;62.67;91751.53;4856694;29;20101;-80
2021/08/01 06:23:13;;;;;;;0.55;0.55;;;;;;;22.55;60.29;91753.84;4851431;29;20068;-80
2021/08/01 06:25:38;;;;;;;0.70;0.70;;;;;;;22.63;57.94;91749.28;4860468;29;20054;-80
2021/08/01 06:28:05;;;;;;;0.73;0.73;;;;;;;23.78;55.15;91754.63;4846286;29;20048;-79
2021/08/01 06:30:31;;;;;;;0.50;0.50;;;;;;;24.80;49.79;91756.50;4861515;29;20564;-80
2021/08/01 06:32:56;;;;;;;0.73;0.73;;;;;;;24.78;51.22;91753.44;4863332;29;20049;-79
2021/08/01 06:35:22;;;;;;;0.75;0.75;;;;;;;26.24;48.29;91761.38;4862472;29;20081;-80
2021/08/01 06:37:48;;;;;;;0.80;0.80;;;;;;;27.29;46.65;91764.97;4862080;29;20106;-79
2021/08/01 06:40:16;;;;;;;1.27;1.10;;;;;;;27.92;45.18;91752.75;4863388;29;20053;-78
2021/08/01 06:42:42;;;;;;;1.00;0.90;;;;;;;28.90;42.87;91755.06;4846811;29;20056;-79
2021/08/01 06:45:08;;;;;;;1.48;1.17;;;;;;;29.37;40.58;91752.84;4865969;29;20145;-79
2021/08/01 06:47:34;;;;;;;1.15;1.05;;;;;;;25.77;48.46;91764.50;4864347;29;20492;-78
2021/08/01 06:50:00;;;;;;;0.88;0.75;;;;;;;24.87;51.94;91761.78;4865976;29;20061;-78
2021/08/01 06:52:26;;;;;;;0.50;0.50;;;;;;;23.04;55.84;91773.75;4865184;29;20592;-78
2021/08/01 06:54:51;;;;;;;0.60;0.60;;;;;;;22.95;56.37;91770.66;4866525;29;20049;-79
2021/08/01 06:57:17;;;;;;;0.52;0.52;;;;;;;23.89;54.44;91758.03;4848980;29;20061;-79
2021/08/01 06:59:43;;;;;;;1.20;0.73;;;;;;;23.92;55.64;91757.25;4865664;29;20057;-78
2021/08/01 07:02:08;;;;;;;0.65;0.65;;;;;;;21.08;65.83;91769.06;4865066;29;20185;-79
2021/08/01 07:04:34;;;;;;;1.17;0.98;;;;;;;20.57;66.70;91767.84;4848720;29;20049;-78
2021/08/01 07:07:00;;;;;;;1.20;0.77;;;;;;;20.37;69.54;91769.13;4849742;29;20037;-79
2021/08/01 07:09:25;;;;;;;1.63;1.15;;;;;;;20.77;68.98;91771.06;4847449;29;20049;-78
2021/08/01 07:11:52;;;;;;;0.60;0.60;;;;;;;20.04;69.07;91762.72;4848649;29;20098;-78
2021/08/01 07:14:17;;;;;;;0.75;0.50;;;;;;;20.07;73.10;91772.59;4849187;29;20058;-78
2021/08/01 07:16:44;;;;;;;1.63;0.73;;;;;;;19.72;75.42;91776.38;4863558;29;20068;-78
2021/08/01 07:19:10;;;;;;;0.77;0.70;;;;;;;19.81;74.69;91770.00;4866673;29;20518;-78
2021/08/01 07:21:35;;;;;;;0.60;0.60;;;;;;;20.25;73.91;91772.06;4855875;29;20057;-78
2021/08/01 07:24:01;;;;;;;0.40;0.40;;;;;;;20.64;71.10;91769.81;4849678;29;20041;-78
2021/08/01 07:26:26;;;;;;;0.60;0.60;;;;;;;20.37;71.58;91772.56;4865384;29;20064;-79
2021/08/01 07:28:52;;;;;;;0.60;0.60;;;;;;;19.95;73.86;91768.31;4865989;29;20054;-78
2021/08/01 07:31:18;;;;;;;0.55;0.52;;;;;;;19.91;72.81;91775.47;4857927;29;20064;-78
2021/08/01 07:33:43;;;;;;;1.40;0.90;;;;;;;19.58;74.02;91773.47;4866434;29;20041;-78
2021/08/01 07:36:09;;;;;;;0.57;0.57;;;;;;;19.28;73.58;91774.22;4850806;29;20054;-78
2021/08/01 07:38:35;;;;;;;0.43;0.43;;;;;;;19.49;72.43;91781.69;4850661;29;20049;-78
2021/08/01 07:41:00;;;;;;;1.88;1.05;;;;;;;19.39;72.53;91768.31;4884942;29;20423;-79
2021/08/01 07:43:26;;;;;;;0.57;0.57;;;;;;;19.85;73.04;91768.16;4867502;29;20099;-78
2021/08/01 07:45:52;;;;;;;0.75;0.63;;;;;;;20.09;69.20;91765.03;4866280;29;20070;-78
2021/08/01 07:48:17;;;;;;;0.95;0.70;;;;;;;20.53;68.79;91756.38;4866437;29;20408;-79
2021/08/01 07:50:43;;;;;;;1.30;1.00;;;;;;;20.46;69.11;91756.31;4830660;29;20415;-78
2021/08/01 07:53:09;;;;;;;0.40;0.40;;;;;;;19.74;72.02;91760.81;4855236;29;20050;-78
2021/08/01 07:55:35;;;;;;;1.05;0.68;;;;;;;19.59;73.37;91756.44;4825907;29;20189;-79
2021/08/01 07:58:00;;;;;;;1.48;1.38;;;;;;;19.97;72.46;91749.31;4845735;29;20057;-78
2021/08/01 08:00:26;;;;;;;0.65;0.65;;;;;;;19.76;72.63;91747.94;4846941;29;20049;-81
2021/08/01 08:02:52;;;;;;;1.80;0.68;;;;;;;19.92;72.60;91744.34;4846998;29;20076;-80
2021/08/01 08:05:18;;;;;;;1.80;0.82;;;;;;;20.14;72.00;91746.13;4864746;29;20075;-79
2021/08/01 08:07:43;;;;;;;0.70;0.70;;;;;;;19.50;72.51;91745.31;4867120;29;20053;-78
2021/08/01 08:10:09;;;;;;;7.68;0.50;;;;;;;19.51;72.50;91741.53;4866441;29;20042;-79
2021/08/01 08:12:35;;;;;;;0.80;0.60;;;;;;;19.58;72.29;91746.94;4864442;29;20049;-78
2021/08/01 08:15:01;;;;;;;1.08;0.50;;;;;;;20.02;70.99;91753.56;4858734;29;20098;-79
2021/08/01 08:17:31;;;;;;;0.60;0.60;;;;;;;20.61;71.89;91745.88;4859128;29;20060;-79
2021/08/01 08:19:56;;;;;;;0.55;0.55;;;;;;;20.42;69.62;91747.53;4848140;29;20065;-78
2021/08/01 08:22:22;;;;;;;0.50;0.50;;;;;;;20.50;71.27;91751.81;4863450;29;20034;-78
2021/08/01 08:24:48;;;;;;;0.57;0.57;;;;;;;20.76;69.96;91753.59;4863902;29;20075;-77
2021/08/01 08:27:13;;;;;;;0.60;0.60;;;;;;;19.99;71.91;91765.66;4861825;29;20053;-77
2021/08/01 08:29:39;;;;;;;0.82;0.73;;;;;;;20.27;70.29;91764.47;4863126;29;20137;-78
2021/08/01 08:32:05;;;;;;;0.30;0.30;;;;;;;20.34;73.52;91764.56;4829522;29;20049;-79
2021/08/01 08:34:31;;;;;;;0.47;0.47;;;;;;;20.51;72.42;91779.94;4855868;29;20050;-79
2021/08/01 08:37:00;;;;;;;1.75;0.93;;;;;;;20.42;70.16;91776.78;4846558;29;20060;-79
2021/08/01 08:39:28;;;;;;;0.63;0.63;;;;;;;19.48;71.47;91779.41;4824421;29;20440;-79
2021/08/01 08:41:57;;;;;;;0.88;0.60;;;;;;;19.86;70.89;91780.31;4830557;29;20125;-78
2021/08/01 08:44:23;;;;;;;0.50;0.50;;;;;;;20.18;71.16;91780.72;4838681;29;20162;-79
2021/08/01 08:46:53;;;;;;;0.60;0.60;;;;;;;20.18;71.93;91792.09;4859268;29;20123;-78
2021/08/01 08:49:21;;;;;;;1.20;1.05;;;;;;;20.35;65.21;91782.00;4841971;29;20131;-79
2021/08/01 08:51:50;;;;;;;0.30;0.30;;;;;;;20.50;59.56;91773.06;4858240;29;20500;-79
2021/08/01 08:54:20;;;;;;;0.43;0.43;;;;;;;20.36;68.56;91778.25;4861349;29;20038;-78
2021/08/01 08:56:47;;;;;;;0.30;0.30;;;;;;;20.16;60.73;91785.63;4860601;29;20049;-79
2021/08/01 08:59:18;;;;;;;0.30;0.30;;;;;;;20.46;63.97;91768.84;4862881;29;20048;-77
2021/08/01 09:01:44;;;;;;;0.30;0.30;;;;;;;21.17;61.82;91790.03;4859782;29;20049;-77
2021/08/01 09:04:10;;;;;;;0.30;0.30;;;;;;;21.05;55.25;91779.66;4857146;29;20053;-80
2021/08/01 09:06:36;;;;;;;0.30;0.30;;;;;;;21.45;50.65;91776.19;4854674;29;20838;-80
2021/08/01 09:09:03;;;;;;;0.40;0.40;;;;;;;21.83;50.49;91780.22;4859992;29;20064;-81
2021/08/01 09:11:29;;;;;;;0.50;0.50;;;;;;;22.12;52.46;91784.91;4868077;29;20084;-81
2021/08/01 09:13:58;;;;;;;0.40;0.40;;;;;;;22.56;51.21;91787.38;4863804;29;20049;-79
2021/08/01 09:16:42;;;;;;;0.30;0.30;;;;;;;22.68;47.54;91783.59;4845611;29;20072;-79
2021/08/01 09:19:37;;;;;;;0.30;0.30;;;;;;;22.60;50.82;91800.72;4847123;29;20495;-79
2021/08/01 09:22:21;;;;;;;1.17;0.63;;;;;;;22.82;49.77;91788.19;4857138;29;20045;-79
2021/08/01 09:24:49;;;;;;;0.65;0.55;;;;;;;22.87;49.61;91793.16;4864103;29;20053;-82
2021/08/01 09:27:33;;;;;;;0.57;0.57;;;;;;;23.12;48.13;91782.50;4866467;29;20047;-85
2021/08/01 09:30:00;;;;;;;1.40;1.05;;;;;;;23.71;45.33;91787.44;4860201;29;20103;-82
2021/08/01 09:32:29;;;;;;;0.57;0.40;;;;;;;23.74;46.96;91783.25;4864360;29;20266;-79
2021/08/01 09:34:55;;;;;;;1.05;0.90;;;;;;;24.10;48.48;91781.25;4846426;29;20041;-81
2021/08/01 09:37:34;;;;;;;2.00;1.23;;;;;;;24.58;47.20;91778.00;4862109;29;20049;-83
2021/08/01 09:40:09;;;;;;;1.65;1.02;;;;;;;24.58;45.74;91785.28;4863475;29;20076;-83
2021/08/01 09:42:46;;;;;;;0.68;0.68;;;;;;;24.81;45.93;91785.53;4862553;29;20046;-79
2021/08/01 09:45:22;;;;;;;0.60;0.60;;;;;;;24.69;43.80;91776.03;4865663;29;20049;-81
2021/08/01 09:47:49;;;;;;;1.80;0.98;;;;;;;24.86;43.93;91785.13;4862681;29;20049;-80
2021/08/01 09:50:16;;;;;;;1.25;0.77;;;;;;;24.78;44.51;91783.63;4827449;29;20045;-81
2021/08/01 09:52:42;;;;;;;0.85;0.80;;;;;;;24.24;44.25;91783.88;4852805;29;20037;-81
2021/08/01 09:55:21;;;;;;;0.77;0.35;;;;;;;23.95;44.10;91777.84;4873028;29;20132;-81
2021/08/01 09:57:52;;;;;;;0.85;0.57;;;;;;;24.16;47.00;91773.59;4866017;29;20049;-81
2021/08/01 10:00:19;;;;;;;0.60;0.60;;;;;;;24.10;43.87;91773.25;4859605;29;20102;-81
2021/08/01 10:02:45;;;;;;;1.35;0.70;;;;;;;24.04;44.94;91772.88;4865485;29;20074;-80
2021/08/01 10:05:28;;;;;;;0.80;0.80;;;;;;;23.99;45.09;91769.84;4861633;29;20037;-79
2021/08/01 10:07:54;;;;;;;1.25;0.93;;;;;;;24.10;44.51;91768.66;4859588;29;20148;-85
2021/08/01 10:10:27;;;;;;;0.50;0.50;;;;;;;23.94;44.82;91764.91;4843363;29;20135;-83
2021/08/01 10:12:58;;;;;;;0.55;0.55;;;;;;;23.84;45.18;91769.09;4861202;29;20476;-81
2021/08/01 10:15:26;;;;;;;0.83;0.73;;;;;;;23.71;44.85;91763.41;4867144;29;20048;-80
2021/08/01 10:17:52;;;;;;;0.52;0.45;;;;;;;23.50;43.11;91756.19;4861682;29;20581;-82
2021/08/01 10:20:18;;;;;;;1.60;0.95;;;;;;;23.64;44.81;91766.06;4859664;29;20125;-80
2021/08/01 10:22:44;;;;;;;0.45;0.40;;;;;;;23.45;43.33;91760.00;4862123;29;20073;-79
2021/08/01 10:25:17;;;;;;;0.73;0.50;;;;;;;23.38;43.47;91760.00;4868191;29;20054;-79
2021/08/01 10:27:47;;;;;;;0.47;0.47;;;;;;;23.39;44.14;91761.53;4865274;29;20048;-81
2021/08/01 10:30:20;;;;;;;0.55;0.55;;;;;;;23.61;43.89;91754.25;4865434;29;20084;-79
2021/08/01 10:32:51;;;;;;;0.38;0.38;;;;;;;23.95;44.03;91758.41;4863622;29;20164;-79
2021/08/01 10:35:21;;;;;;;0.30;0.30;;;;;;;24.20;42.84;91764.41;4865545;29;20041;-80
2021/08/01 10:38:02;;;;;;;0.57;0.52;;;;;;;23.97;41.70;91750.75;4847999;29;20130;-85
2021/08/01 10:40:31;;;;;;;0.52;0.50;;;;;;;23.63;40.81;91759.97;4847183;29;20436;-80
2021/08/01 10:43:06;;;;;;;0.35;0.35;;;;;;;23.65;42.63;91748.91;4860270;29;20132;-83
2021/08/01 10:45:32;;;;;;;0.30;0.30;;;;;;;23.67;42.62;91765.31;4867133;29;20079;-81
2021/08/01 10:47:59;;;;;;;3.10;0.50;;;;;;;23.43;43.22;91762.28;4860655;29;20049;-80
2021/08/01 10:50:27;;;;;;;0.50;0.50;;;;;;;23.48;42.22;91761.91;4833710;29;20072;-79
2021/08/01 10:53:22;;;;;;;0.82;0.82;;;;;;;23.59;45.54;91769.13;4844647;29;20037;-78
2021/08/01 10:55:50;;;;;;;0.43;0.43;;;;;;;24.05;44.46;91768.31;4858885;29;20054;-78
2021/08/01 10:58:17;;;;;;;0.40;0.40;;;;;;;24.32;40.75;91768.56;4842582;29;20469;-78
2021/08/01 11:01:03;;;;;;;0.60;0.60;;;;;;;23.28;42.81;91769.56;4834673;29;20053;-79
2021/08/01 11:03:31;;;;;;;0.32;0.32;;;;;;;23.55;41.44;91768.38;4835062;29;20053;-79
2021/08/01 11:05:58;;;;;;;0.30;0.30;;;;;;;23.61;43.80;91767.59;4862077;29;20044;-78
2021/08/01 11:08:25;;;;;;;0.40;0.40;;;;;;;23.91;38.58;91761.06;4858244;29;20085;-78
2021/08/01 11:11:14;;;;;;;0.95;0.40;;;;;;;23.74;44.34;91772.56;4846074;29;20140;-78
2021/08/01 11:13:47;;;;;;;0.47;0.47;;;;;;;23.95;43.14;91772.50;4839649;29;20480;-79
2021/08/01 11:16:34;;;;;;;0.45;0.45;;;;;;;24.16;44.49;91774.38;4857713;29;20049;-77
2021/08/01 11:19:00;;;;;;;0.77;0.52;;;;;;;24.50;48.06;91784.56;4853216;29;20128;-78
2021/08/01 11:21:47;;;;;;;0.50;0.50;;;;;;;23.76;45.07;91781.75;4855969;29;20133;-78
2021/08/01 11:24:13;;;;;;;3.20;1.10;;;;;;;23.92;52.09;91789.34;4859294;29;20045;-78
2021/08/01 11:27:14;;;;;;;0.55;0.52;;;;;;;23.93;54.78;91796.19;4855172;29;20554;-78
2021/08/01 11:29:56;;;;;;;0.50;0.50;;;;;;;23.80;54.80;91790.50;4815241;29;20054;-80
2021/08/01 11:32:21;;;;;;;;;;;;;;;23.52;54.44;91788.59;4865539;29;20140;-78
2021/08/01 11:34:48;;;;;;;1.30;0.82;;;;;;;23.62;53.44;91787.06;4828792;29;20027;-77
2021/08/01 11:37:20;;;;;;;0.65;0.65;;;;;;;24.02;52.80;91793.13;4840515;29;20140;-78
2021/08/01 11:39:56;;;;;;;0.60;0.60;;;;;;;23.69;48.09;91795.84;4848829;29;20686;-78
2021/08/01 11:42:28;;;;;;;0.50;0.50;;;;;;;23.68;54.96;91798.88;4844449;29;20073;-78
2021/08/01 11:45:06;;;;;;;2.08;1.48;;;;;;;23.46;55.21;91812.28;4862328;29;20049;-78
2021/08/01 11:47:45;;;;;;;0.63;0.63;;;;;;;22.91;56.94;91804.59;4862444;29;20429;-78
2021/08/01 11:50:13;;;;;;;4.22;0.88;;;;;;;23.36;60.41;91809.59;4859168;29;20509;-78
2021/08/01 11:52:43;;;;;;;1.63;0.88;;;;;;;24.11;59.36;91804.16;4860092;29;20070;-78
2021/08/01 11:55:12;;;;;;;1.08;0.90;;;;;;;24.38;54.35;91809.03;4861912;29;20053;-78
2021/08/01 11:57:38;;;;;;;0.60;0.60;;;;;;;24.56;51.44;91820.44;4859484;29;20046;-78
2021/08/01 12:00:05;;;;;;;0.82;0.73;;;;;;;24.12;52.73;91812.97;4855821;29;20044;-79
2021/08/01 12:02:31;;;;;;;0.77;0.70;;;;;;;24.02;51.84;91807.22;4846087;29;20428;-79
2021/08/01 12:04:58;;;;;;;1.05;0.88;;;;;;;23.50;54.68;91806.91;4840774;29;20093;-78
2021/08/01 12:08:00;;;;;;;0.75;0.70;;;;;;;23.42;51.15;91811.50;4862653;29;20045;-79
2021/08/01 12:10:26;;;;;;;0.70;0.70;;;;;;;23.32;52.12;91811.50;4790214;29;20153;-77
2021/08/01 12:12:59;;;;;;;0.40;0.40;;;;;;;23.36;53.24;91817.63;4848167;29;20694;-77
2021/08/01 12:15:26;;;;;;;1.55;0.93;;;;;;;23.21;53.76;91814.16;4848690;29;20081;-77
2021/08/01 12:17:52;;;;;;;5.88;1.40;;;;;;;23.22;52.76;91813.03;4842986;29;21010;-79
2021/08/01 12:20:18;;;;;;;0.77;0.57;;;;;;;23.11;54.10;91813.03;4861965;29;20057;-78
2021/08/01 12:22:50;;;;;;;1.08;0.55;;;;;;;23.07;52.85;91821.03;4860300;29;20560;-79
2021/08/01 12:25:16;;;;;;;2.58;1.40;;;;;;;23.01;54.54;91811.88;4846136;29;20125;-79
2021/08/01 12:27:43;;;;;;;1.17;0.82;;;;;;;22.84;55.03;91816.00;4833250;29;20041;-78
2021/08/01 12:30:18;;;;;;;0.47;0.47;;;;;;;22.82;55.62;91820.19;4849426;29;20049;-78
2021/08/01 12:32:45;;;;;;;0.52;0.50;;;;;;;22.64;56.40;91810.25;4863581;29;20512;-79
2021/08/01 12:35:14;;;;;;;0.60;0.60;;;;;;;22.40;58.20;91814.38;4863340;29;20050;-78
2021/08/01 12:38:05;;;;;;;1.95;1.20;;;;;;;22.36;58.92;91820.81;4864115;29;20072;-78
2021/08/01 12:40:42;;;;;;;0.43;0.43;;;;;;;22.40;58.85;91821.59;4845159;29;20534;-79
2021/08/01 12:43:17;;;;;;;0.85;0.75;;;;;;;22.27;60.75;91821.19;4862510;29;20461;-78
2021/08/01 12:45:48;;;;;;;0.30;0.30;;;;;;;22.14;60.81;91828.72;4862332;29;20505;-78
2021/08/01 12:48:19;;;;;;;0.65;0.55;;;;;;;22.06;59.08;91827.13;4824654;29;20082;-79
2021/08/01 12:51:00;;;;;;;0.30;0.30;;;;;;;22.04;57.99;91832.84;4853977;29;20957;-79
2021/08/01 12:53:27;;;;;;;0.60;0.60;;;;;;;22.05;57.00;91822.97;4866465;29;20045;-79